Time;durP1;ratioP1;P1;durP2;ratioP2;P2;SDS_P1;SDS_P2;PMS_P1;PMS_P2;Temp;Humidity;BMP_temperature;BMP_pressure;BME280_temperature;BME280_humidity;BME280_pressure;Samples;Min_cycle;Max_cycle;Signal;HPM_P1;HPM_P2
2021/03/13 00:01:35;;;;;;;37.85;20.60;;;;;;;5.90;58.54;100520.78;1767668;81;21171;-63
2021/03/13 00:04:04;;;;;;;30.05;17.98;;;;;;;5.87;58.60;100527.28;1748638;81;21163;-55
2021/03/13 00:06:31;;;;;;;25.00;15.13;;;;;;;5.86;58.63;100529.86;1772809;81;21159;-62
2021/03/13 00:08:59;;;;;;;25.35;16.40;;;;;;;5.86;58.66;100540.31;1779046;81;21155;-55
2021/03/13 00:11:26;;;;;;;23.12;14.45;;;;;;;5.87;58.63;100547.29;1758236;81;21139;-55
2021/03/13 00:13:54;;;;;;;25.97;15.15;;;;;;;5.85;58.54;100547.29;1754340;81;21111;-62
2021/03/13 00:16:22;;;;;;;24.40;15.13;;;;;;;5.81;58.53;100546.81;1756248;81;21165;-61
2021/03/13 00:18:50;;;;;;;22.27;15.05;;;;;;;5.75;58.52;100538.91;1776844;81;21143;-61
2021/03/13 00:21:17;;;;;;;28.12;16.50;;;;;;;5.72;58.54;100549.33;1751374;81;21143;-61
2021/03/13 00:23:45;;;;;;;23.15;15.50;;;;;;;5.66;58.63;100552.77;1754665;81;21289;-55
2021/03/13 00:26:12;;;;;;;24.20;16.67;;;;;;;5.70;58.45;100553.23;1774315;81;21211;-54
2021/03/13 00:28:40;;;;;;;26.37;17.07;;;;;;;5.61;58.57;100550.52;1782747;80;21154;-61
2021/03/13 00:31:08;;;;;;;29.10;16.73;;;;;;;5.57;58.61;100558.73;1761518;81;21127;-60
2021/03/13 00:33:37;;;;;;;24.18;16.37;;;;;;;5.54;58.69;100543.03;1785196;80;21150;-61
2021/03/13 00:36:08;;;;;;;19.87;14.07;;;;;;;5.51;58.73;100536.50;1772709;80;21202;-61
2021/03/13 00:38:35;;;;;;;24.55;15.55;;;;;;;5.48;58.78;100536.47;1781071;80;21443;-61
2021/03/13 00:41:03;;;;;;;22.58;16.02;;;;;;;5.44;58.77;100534.23;1790268;79;21299;-61
2021/03/13 00:43:31;;;;;;;23.38;15.35;;;;;;;5.42;58.80;100537.70;1763402;80;21127;-61
2021/03/13 00:45:59;;;;;;;22.22;13.78;;;;;;;5.41;58.79;100538.11;1762523;80;21440;-54
2021/03/13 00:48:27;;;;;;;21.07;14.05;;;;;;;5.36;58.85;100534.16;1787438;80;21126;-54
2021/03/13 00:50:55;;;;;;;22.67;15.60;;;;;;;5.33;58.89;100531.92;1790050;80;21158;-61
2021/03/13 00:53:23;;;;;;;27.58;18.02;;;;;;;5.31;58.93;100525.39;1792826;80;21150;-61
2021/03/13 00:55:51;;;;;;;33.53;18.80;;;;;;;5.24;59.08;100527.92;1771408;80;21103;-61
2021/03/13 00:58:20;;;;;;;29.70;18.70;;;;;;;5.26;58.99;100527.06;1761322;81;21151;-62
2021/03/13 01:00:50;;;;;;;27.50;17.17;;;;;;;5.24;59.00;100521.39;1767951;80;21182;-54
2021/03/13 01:03:20;;;;;;;27.80;17.73;;;;;;;5.23;59.22;100517.89;1774861;80;21178;-55
2021/03/13 01:05:48;;;;;;;20.40;13.85;;;;;;;5.23;59.22;100517.89;1776815;80;21812;-61
2021/03/13 01:08:16;;;;;;;25.55;17.32;;;;;;;5.23;59.08;100515.28;1763996;80;21167;-61
2021/03/13 01:10:45;;;;;;;24.23;16.50;;;;;;;5.24;59.01;100512.27;1791574;80;21151;-54
2021/03/13 01:13:14;;;;;;;24.47;17.17;;;;;;;5.23;58.99;100507.90;1789984;80;21107;-62
2021/03/13 01:15:44;;;;;;;21.35;14.87;;;;;;;5.25;58.89;100512.71;1767296;80;21122;-62
2021/03/13 01:18:12;;;;;;;19.27;13.43;;;;;;;5.25;58.86;100508.34;1772130;80;21578;-54
2021/03/13 01:20:41;;;;;;;22.67;14.60;;;;;;;5.22;58.68;100512.23;1792821;80;21296;-61
2021/03/13 01:23:10;;;;;;;22.05;14.93;;;;;;;5.16;58.63;100519.56;1787050;80;21107;-62
2021/03/13 01:25:38;;;;;;;20.57;14.55;;;;;;;5.14;58.68;100517.36;1761880;81;21159;-54
2021/03/13 01:28:06;;;;;;;18.90;13.60;;;;;;;5.15;58.58;100513.89;1761258;80;21191;-62
2021/03/13 01:30:36;;;;;;;22.40;14.40;;;;;;;5.17;58.43;100513.48;1748006;81;21167;-62
2021/03/13 01:33:04;;;;;;;25.43;15.98;;;;;;;5.15;58.43;100510.40;1762703;80;21160;-62
2021/03/13 01:35:33;;;;;;;23.10;15.88;;;;;;;5.15;58.42;100512.59;1780099;80;21120;-55
2021/03/13 01:38:00;;;;;;;21.77;13.58;;;;;;;5.14;58.44;100508.64;1776453;81;21155;-54
2021/03/13 01:40:28;;;;;;;20.62;14.10;;;;;;;5.06;58.22;100513.78;1779010;81;21171;-62
2021/03/13 01:42:56;;;;;;;22.77;14.18;;;;;;;4.95;58.43;100521.48;1752737;81;21185;-62
2021/03/13 01:45:25;;;;;;;21.85;15.43;;;;;;;4.91;58.50;100530.11;1750662;81;21281;-54
2021/03/13 01:47:55;;;;;;;22.48;15.25;;;;;;;4.92;58.49;100535.78;1748492;81;21578;-62
2021/03/13 01:50:24;;;;;;;18.82;12.82;;;;;;;4.94;58.42;100535.78;1752757;80;21179;-62
2021/03/13 01:52:52;;;;;;;20.08;13.43;;;;;;;4.93;58.35;100540.14;1778861;80;21157;-55
2021/03/13 01:55:22;;;;;;;24.05;14.55;;;;;;;4.90;58.23;100540.09;1759561;80;21154;-62
2021/03/13 01:57:51;;;;;;;22.55;15.18;;;;;;;4.87;58.19;100531.78;1712303;84;21147;-55
2021/03/13 02:00:22;;;;;;;22.40;14.20;;;;;;;4.86;58.24;100527.42;1755207;81;21147;-54
2021/03/13 02:03:00;;;;;;;22.62;14.25;;;;;;;4.87;58.29;100531.78;1820673;77;22159;-52
2021/03/13 02:05:39;;;;;;;20.70;14.07;;;;;;;4.78;58.24;100538.20;1786753;80;21115;-51
2021/03/13 02:08:15;;;;;;;21.23;13.75;;;;;;;4.73;58.30;100548.55;1785910;78;21191;-53
2021/03/13 02:11:08;;;;;;;20.85;14.55;;;;;;;4.70;58.30;100552.86;1782873;80;21165;-53
2021/03/13 02:13:46;;;;;;;22.82;15.05;;;;;;;4.67;58.50;100547.59;1784928;80;21317;-61
2021/03/13 02:16:29;;;;;;;20.95;15.28;;;;;;;4.68;58.71;100557.17;1782771;80;21139;-61
2021/03/13 02:19:25;;;;;;;21.70;14.20;;;;;;;4.64;58.70;100557.53;1795660;79;21280;-53
2021/03/13 02:22:01;;;;;;;20.45;14.38;;;;;;;4.61;58.72;100568.81;1773994;80;21138;-54
2021/03/13 02:24:51;;;;;;;24.18;14.60;;;;;;;4.60;58.63;100565.75;1793117;80;21138;-61
2021/03/13 02:27:27;;;;;;;23.30;16.30;;;;;;;4.62;58.62;100563.19;1784237;80;21269;-54
2021/03/13 02:30:04;;;;;;;22.37;15.30;;;;;;;4.64;58.58;100561.89;1762872;80;21296;-62
2021/03/13 02:33:18;;;;;;;22.37;14.05;;;;;;;4.64;58.51;100563.20;1789559;80;21322;-52
2021/03/13 02:35:58;;;;;;;21.17;14.43;;;;;;;4.61;58.43;100562.29;1791174;78;21162;-53
2021/03/13 02:38:49;;;;;;;22.60;14.50;;;;;;;4.61;58.39;100569.25;1784903;80;21138;-60
2021/03/13 02:41:20;;;;;;;20.90;14.90;;;;;;;4.60;58.30;100574.02;1784460;80;21154;-61
2021/03/13 02:43:53;;;;;;;23.45;15.95;;;;;;;4.57;58.32;100575.27;1719523;83;21184;-53
2021/03/13 02:46:23;;;;;;;23.22;15.60;;;;;;;4.56;58.39;100572.21;1710396;82;21584;-61
2021/03/13 02:48:51;;;;;;;22.00;15.10;;;;;;;4.53;58.23;100578.23;1718013;83;21560;-54
2021/03/13 02:51:21;;;;;;;23.67;15.43;;;;;;;4.51;58.27;100575.17;1703388;83;21531;-61
2021/03/13 02:53:49;;;;;;;24.57;15.78;;;;;;;4.51;58.27;100577.33;1732653;82;21284;-61
2021/03/13 02:56:19;;;;;;;26.90;15.93;;;;;;;4.52;58.28;100579.09;1722482;82;21175;-62
2021/03/13 02:58:50;;;;;;;23.20;15.60;;;;;;;4.55;58.19;100576.97;1722057;83;21151;-62
2021/03/13 03:01:20;;;;;;;22.48;15.38;;;;;;;4.53;58.14;100573.47;1705163;83;21662;-62
2021/03/13 03:03:49;;;;;;;24.45;16.50;;;;;;;4.50;58.08;100574.72;1755736;81;21145;-62
2021/03/13 03:06:19;;;;;;;24.82;16.77;;;;;;;4.50;58.00;100574.28;1747932;81;21173;-62
2021/03/13 03:08:48;;;;;;;25.88;16.65;;;;;;;4.48;57.95;100567.30;1769457;81;21226;-62
2021/03/13 03:11:22;;;;;;;20.40;13.98;;;;;;;4.45;57.98;100574.62;1749854;81;21159;-62
2021/03/13 03:13:51;;;;;;;24.23;14.25;;;;;;;4.41;57.95;100578.92;1773901;79;21080;-52
2021/03/13 03:16:19;;;;;;;24.52;16.05;;;;;;;4.34;57.82;100585.33;1727240;82;21186;-60
2021/03/13 03:18:51;;;;;;;23.35;16.15;;;;;;;4.22;57.94;100584.27;1721846;82;21199;-60
2021/03/13 03:21:19;;;;;;;;;;;;;;;4.16;58.29;100584.16;1750535;81;21186;-52
2021/03/13 03:23:47;;;;;;;20.10;14.20;;;;;;;4.16;58.44;100588.06;1749374;81;20126;-51
2021/03/13 03:26:17;;;;;;;25.77;16.75;;;;;;;4.17;58.60;100596.33;1764164;81;21155;-60
2021/03/13 03:28:46;;;;;;;23.85;15.40;;;;;;;4.20;58.70;100598.98;1768945;81;21132;-52
2021/03/13 03:31:16;;;;;;;24.92;15.38;;;;;;;4.20;58.64;100593.78;1764093;80;21162;-60
2021/03/13 03:33:44;;;;;;;23.32;15.35;;;;;;;4.21;58.56;100598.14;1748776;81;21174;-60
2021/03/13 03:36:13;;;;;;;24.90;16.07;;;;;;;4.19;58.50;100593.77;1756382;81;21132;-52
2021/03/13 03:38:41;;;;;;;28.92;17.82;;;;;;;4.16;58.41;100579.84;1748146;81;21159;-53
2021/03/13 03:41:11;;;;;;;25.97;17.00;;;;;;;4.15;58.47;100588.50;1754987;81;21289;-51
2021/03/13 03:43:45;;;;;;;24.40;16.90;;;;;;;4.16;58.41;100590.26;1754238;81;21144;-61
2021/03/13 03:46:15;;;;;;;27.62;17.20;;;;;;;4.17;58.18;100584.61;1758237;80;21193;-60
2021/03/13 03:48:42;;;;;;;24.43;15.55;;;;;;;4.14;58.07;100589.35;1751506;79;21095;-61
2021/03/13 03:51:16;;;;;;;26.20;17.10;;;;;;;4.10;58.00;100599.27;1760385;79;21183;-61
2021/03/13 03:53:51;;;;;;;27.22;16.90;;;;;;;4.05;58.15;100581.77;1830200;77;22561;-60
2021/03/13 03:56:23;;;;;;;25.32;16.77;;;;;;;3.99;58.22;100586.47;1814327;78;21310;-52
2021/03/13 03:58:50;;;;;;;23.62;16.23;;;;;;;3.97;58.34;100585.56;1785415;80;21534;-52
2021/03/13 04:01:18;;;;;;;26.17;16.45;;;;;;;3.97;58.42;100582.55;1783202;80;21562;-53
2021/03/13 04:03:53;;;;;;;24.70;17.05;;;;;;;3.95;58.38;100585.55;1760180;80;21288;-53
2021/03/13 04:06:21;;;;;;;28.73;16.75;;;;;;;3.98;58.46;100587.31;1762190;81;21568;-53
2021/03/13 04:08:53;;;;;;;25.50;17.25;;;;;;;3.98;58.45;100581.66;1773812;80;21284;-53
2021/03/13 04:11:22;;;;;;;24.32;16.12;;;;;;;4.02;58.37;100577.41;1767720;80;21362;-61
2021/03/13 04:13:52;;;;;;;33.48;16.65;;;;;;;4.03;58.29;100580.46;1753473;82;21178;-52
2021/03/13 04:16:21;;;;;;;29.60;16.40;;;;;;;4.04;58.15;100578.72;1758419;80;21277;-62
2021/03/13 04:18:49;;;;;;;28.80;16.67;;;;;;;4.06;58.08;100572.70;1787998;80;21129;-61
2021/03/13 04:21:16;;;;;;;26.27;16.35;;;;;;;4.08;57.99;100571.41;1763022;80;21163;-61
2021/03/13 04:23:47;;;;;;;25.60;17.75;;;;;;;4.09;57.81;100565.35;1766439;80;21566;-51
2021/03/13 04:26:18;;;;;;;24.40;16.90;;;;;;;4.09;57.86;100563.64;1775897;80;21135;-52
2021/03/13 04:28:46;;;;;;;25.43;16.45;;;;;;;4.05;57.74;100560.53;1779835;80;21946;-61
2021/03/13 04:31:19;;;;;;;27.50;17.75;;;;;;;4.00;57.80;100560.43;1773578;80;21134;-53
2021/03/13 04:33:48;;;;;;;27.13;17.80;;;;;;;3.95;58.02;100559.50;1770414;80;21277;-60
2021/03/13 04:36:15;;;;;;;26.93;17.17;;;;;;;3.95;58.22;100558.20;1769553;80;21143;-51
2021/03/13 04:38:43;;;;;;;30.08;19.15;;;;;;;3.98;58.47;100567.34;1773358;80;21150;-51
2021/03/13 04:41:10;;;;;;;27.67;18.32;;;;;;;3.97;58.36;100564.72;1778546;80;21122;-61
2021/03/13 04:43:38;;;;;;;33.63;18.12;;;;;;;3.97;58.35;100558.21;1774983;80;21134;-60
2021/03/13 04:46:06;;;;;;;28.20;19.00;;;;;;;4.01;58.28;100557.42;1771795;80;21516;-52
2021/03/13 04:48:34;;;;;;;26.10;17.52;;;;;;;4.00;58.40;100553.06;1769620;80;21139;-51
2021/03/13 04:51:05;;;;;;;28.60;19.17;;;;;;;3.99;58.32;100551.30;1779051;80;21110;-61
2021/03/13 04:53:33;;;;;;;28.67;19.45;;;;;;;3.94;58.43;100551.64;1739824;81;21110;-61
2021/03/13 04:56:01;;;;;;;30.23;19.48;;;;;;;3.92;58.54;100543.81;1728501;82;21123;-52
2021/03/13 04:58:29;;;;;;;33.25;21.35;;;;;;;3.91;58.63;100554.19;1726978;82;21165;-52
2021/03/13 05:00:57;;;;;;;68.78;38.88;;;;;;;3.90;58.75;100559.84;1726827;82;21552;-60
2021/03/13 05:03:26;;;;;;;67.27;38.80;;;;;;;3.95;58.94;100562.52;1734546;82;21140;-52
2021/03/13 05:05:54;;;;;;;50.92;30.20;;;;;;;4.00;58.99;100564.78;1713455;82;21645;-52
2021/03/13 05:08:22;;;;;;;48.92;30.32;;;;;;;4.07;59.27;100563.14;1735052;82;21475;-59
2021/03/13 05:10:49;;;;;;;54.65;33.48;;;;;;;4.16;59.25;100566.81;1720919;82;21141;-59
2021/03/13 05:13:17;;;;;;;51.15;32.20;;;;;;;4.22;59.19;100576.45;1725622;82;21557;-52
2021/03/13 05:15:45;;;;;;;46.70;27.77;;;;;;;4.29;59.23;100575.70;1725390;82;21167;-53
2021/03/13 05:18:12;;;;;;;46.85;27.10;;;;;;;4.36;59.23;100574.50;1718010;83;21716;-54
2021/03/13 05:20:42;;;;;;;34.20;22.45;;;;;;;4.40;59.12;100568.05;1747175;82;21269;-55
2021/03/13 05:23:09;;;;;;;30.32;19.80;;;;;;;4.45;58.94;100581.14;1732157;82;21636;-60
2021/03/13 05:25:38;;;;;;;40.10;22.02;;;;;;;4.49;58.89;100587.30;1742540;82;21167;-54
2021/03/13 05:28:06;;;;;;;31.33;21.12;;;;;;;4.51;59.01;100589.51;1747631;82;21201;-60
2021/03/13 05:30:33;;;;;;;31.57;20.12;;;;;;;4.54;59.06;100586.95;1739156;82;21175;-54
2021/03/13 05:33:02;;;;;;;33.30;20.68;;;;;;;4.58;59.32;100584.84;1730094;83;21293;-60
2021/03/13 05:35:30;;;;;;;32.50;21.97;;;;;;;4.65;59.38;100584.50;1727679;82;21142;-54
2021/03/13 05:37:57;;;;;;;32.75;21.55;;;;;;;4.73;59.45;100581.14;1730396;82;21183;-60
2021/03/13 05:40:26;;;;;;;30.52;20.68;;;;;;;4.84;59.49;100585.24;1725435;82;21115;-61
2021/03/13 05:42:53;;;;;;;31.15;19.90;;;;;;;4.97;60.56;100581.48;1746701;82;21159;-60
2021/03/13 05:45:21;;;;;;;31.27;21.42;;;;;;;5.15;60.25;100582.16;1749277;82;21276;-61
2021/03/13 05:47:49;;;;;;;32.17;21.82;;;;;;;5.27;60.43;100587.54;1743720;82;21229;-54
2021/03/13 05:50:18;;;;;;;43.10;27.98;;;;;;;5.42;60.77;100591.21;1717916;83;21172;-54
2021/03/13 05:52:57;;;;;;;40.12;27.42;;;;;;;5.61;61.17;100597.53;1731600;80;21121;-54
2021/03/13 05:55:24;;;;;;;37.48;24.85;;;;;;;5.83;61.48;100603.87;1761001;80;21115;-60
2021/03/13 05:57:52;;;;;;;38.08;24.47;;;;;;;6.11;62.41;100597.64;1761408;81;21573;-60
2021/03/13 06:00:21;;;;;;;38.73;25.35;;;;;;;6.40;62.87;100611.42;1761452;81;21170;-54
2021/03/13 06:02:50;;;;;;;48.92;27.87;;;;;;;6.59;61.89;100609.83;1775443;80;21615;-54
2021/03/13 06:05:18;;;;;;;45.25;28.65;;;;;;;6.62;61.96;100617.70;1792445;80;21149;-54
2021/03/13 06:07:46;;;;;;;36.42;24.65;;;;;;;6.75;61.49;100629.55;1792903;80;21195;-61
2021/03/13 06:10:14;;;;;;;31.20;22.75;;;;;;;6.90;62.15;100625.74;1790243;80;21107;-55
2021/03/13 06:12:42;;;;;;;35.80;23.42;;;;;;;7.12;62.83;100631.98;1784713;80;21581;-61
2021/03/13 06:15:11;;;;;;;32.78;22.93;;;;;;;7.35;62.83;100627.74;1777901;80;21131;-55
2021/03/13 06:17:59;;;;;;;32.25;23.38;;;;;;;7.57;62.91;100627.41;1762000;81;21287;-61
2021/03/13 06:20:36;;;;;;;33.20;22.42;;;;;;;7.79;63.47;100633.60;1772219;80;21095;-60
2021/03/13 06:23:14;;;;;;;31.30;21.20;;;;;;;8.00;62.68;100630.16;1792642;80;21547;-56
2021/03/13 06:25:44;;;;;;;;;;;;;;;8.21;63.11;100632.38;1761433;81;21103;-61
2021/03/13 06:30:52;;;;;;;28.52;19.87;;;;;;;8.56;61.88;100637.25;1809727;77;22501;-59
2021/03/13 06:33:24;;;;;;;30.32;20.50;;;;;;;8.60;62.56;100630.71;1748820;81;21099;-53
2021/03/13 06:36:01;;;;;;;30.32;21.48;;;;;;;8.74;62.21;100637.68;1738538;81;21134;-61
2021/03/13 06:38:33;;;;;;;28.92;20.82;;;;;;;8.94;62.40;100631.09;1737639;81;21613;-62
2021/03/13 06:41:17;;;;;;;32.25;24.52;;;;;;;9.23;63.05;100637.61;1742925;81;21111;-62
2021/03/13 06:43:46;;;;;;;30.80;20.48;;;;;;;9.55;63.40;100639.70;1744334;81;21577;-62
2021/03/13 06:46:22;;;;;;;33.18;23.18;;;;;;;9.86;63.23;100642.18;1681645;84;21169;-62
2021/03/13 06:48:53;;;;;;;27.85;20.72;;;;;;;10.18;64.33;100638.94;1695481;83;21375;-55
2021/03/13 06:51:38;;;;;;;28.57;20.97;;;;;;;10.47;62.90;100636.14;1698240;83;21174;-55
2021/03/13 06:54:16;;;;;;;33.45;23.57;;;;;;;10.61;62.76;100641.28;1692914;84;21183;-62
2021/03/13 06:56:57;;;;;;;29.05;21.80;;;;;;;10.82;63.19;100631.01;1707114;84;21135;-54
2021/03/13 06:59:32;;;;;;;30.30;21.55;;;;;;;11.17;63.12;100640.77;1713181;83;21379;-61
2021/03/13 07:02:06;;;;;;;28.85;20.50;;;;;;;11.42;62.57;100636.53;1720673;83;21178;-61
2021/03/13 07:04:43;;;;;;;27.77;21.68;;;;;;;11.63;62.14;100627.95;1719032;83;21187;-55
2021/03/13 07:07:30;;;;;;;29.20;20.97;;;;;;;11.88;62.91;100625.86;1697541;83;21190;-55
2021/03/13 07:10:00;;;;;;;28.55;20.48;;;;;;;12.05;60.31;100626.52;1683754;83;21190;-62
2021/03/13 07:12:41;;;;;;;;;;;;;;;12.15;60.94;100623.74;1685184;83;21679;-56
2021/03/13 07:15:24;;;;;;;25.95;18.27;;;;;;;12.33;61.22;100623.48;1709247;83;20152;-62
2021/03/13 07:20:34;;;;;;;28.45;20.35;;;;;;;12.60;56.51;100637.55;1834802;77;22144;-54
2021/03/13 07:23:04;;;;;;;23.73;18.02;;;;;;;12.46;55.15;100638.66;1764308;80;21599;-54
2021/03/13 07:25:32;;;;;;;28.97;19.47;;;;;;;12.40;56.18;100642.72;1736479;81;21561;-54
2021/03/13 07:28:03;;;;;;;28.20;19.77;;;;;;;12.32;55.67;100634.93;1748105;81;21544;-61
2021/03/13 07:30:33;;;;;;;26.62;19.37;;;;;;;12.30;56.76;100632.76;1762174;81;21123;-60
2021/03/13 07:33:11;;;;;;;27.93;19.90;;;;;;;12.33;55.40;100629.19;1760970;80;21568;-54
2021/03/13 07:35:42;;;;;;;25.15;19.37;;;;;;;12.36;55.10;100636.20;1759534;81;21142;-61
2021/03/13 07:38:11;;;;;;;24.43;18.55;;;;;;;12.27;53.72;100635.88;1731833;81;21187;-62
2021/03/13 07:40:45;;;;;;;23.65;18.25;;;;;;;12.15;52.72;100635.16;1732174;82;21599;-56
2021/03/13 07:43:15;;;;;;;21.40;16.48;;;;;;;11.99;52.71;100638.89;1736793;81;21194;-63
2021/03/13 07:45:47;;;;;;;25.75;18.80;;;;;;;11.92;51.57;100635.91;1741691;81;21575;-56
2021/03/13 07:48:16;;;;;;;27.27;19.23;;;;;;;11.95;51.27;100633.23;1743761;81;21171;-63
2021/03/13 07:50:49;;;;;;;27.42;19.42;;;;;;;11.86;50.83;100639.52;1761007;81;21138;-56
2021/03/13 07:53:17;;;;;;;24.02;17.82;;;;;;;11.72;50.27;100634.40;1729168;81;21145;-63
2021/03/13 07:55:53;;;;;;;26.77;19.47;;;;;;;11.67;50.54;100633.16;1732187;81;21160;-56
2021/03/13 07:58:23;;;;;;;24.25;17.80;;;;;;;11.62;50.84;100631.48;1732114;83;21439;-56
2021/03/13 08:00:53;;;;;;;26.25;19.45;;;;;;;11.62;51.24;100635.44;1743330;80;21542;-63
2021/03/13 08:03:38;;;;;;;24.40;18.60;;;;;;;11.62;51.48;100635.44;1751065;81;21518;-57
2021/03/13 08:06:11;;;;;;;26.48;20.25;;;;;;;11.63;51.20;100653.00;1723617;82;21186;-55
2021/03/13 08:08:43;;;;;;;27.05;20.23;;;;;;;11.57;51.24;100661.41;1723785;83;21237;-63
2021/03/13 08:11:15;;;;;;;29.00;21.27;;;;;;;11.45;51.21;100650.56;1735201;80;21153;-63
2021/03/13 08:13:50;;;;;;;31.10;21.75;;;;;;;11.41;51.08;100646.22;1730803;81;21176;-56
2021/03/13 08:16:42;;;;;;;25.90;19.62;;;;;;;11.40;51.20;100637.00;1731807;81;21164;-63
2021/03/13 08:19:27;;;;;;;30.63;22.57;;;;;;;11.44;51.36;100639.59;1740041;81;21346;-57
2021/03/13 08:22:12;;;;;;;27.60;20.43;;;;;;;11.41;51.44;100648.85;1817711;77;22194;-54
2021/03/13 08:24:47;;;;;;;26.70;18.98;;;;;;;11.35;50.88;100649.34;1761937;81;21159;-62
2021/03/13 08:27:17;;;;;;;29.05;19.87;;;;;;;11.35;51.50;100648.92;1761518;81;21200;-56
2021/03/13 08:29:51;;;;;;;27.35;20.00;;;;;;;11.31;52.08;100653.79;1737275;81;21151;-56
2021/03/13 08:33:00;;;;;;;29.27;20.95;;;;;;;11.28;52.23;100661.73;1699543;83;21185;-57
2021/03/13 08:35:39;;;;;;;27.73;20.12;;;;;;;11.26;52.64;100652.97;1699639;84;21581;-55
2021/03/13 08:38:07;;;;;;;27.52;19.55;;;;;;;11.29;52.24;100655.56;1698313;83;21553;-56
2021/03/13 08:40:48;;;;;;;26.02;19.98;;;;;;;11.34;51.54;100647.17;1714455;84;21338;-62
2021/03/13 08:43:36;;;;;;;;;;;;;;;11.37;52.33;100644.50;1728532;83;21130;-55
2021/03/13 08:46:05;;;;;;;29.98;21.77;;;;;;;10.73;54.55;100656.55;1725033;83;20465;-63
2021/03/13 08:48:58;;;;;;;36.48;25.90;;;;;;;10.82;54.94;100648.55;1699152;83;21136;-62
2021/03/13 08:51:27;;;;;;;28.62;22.67;;;;;;;11.90;53.55;100645.18;1693313;84;21630;-61
2021/03/13 08:53:55;;;;;;;28.23;21.42;;;;;;;12.20;51.92;100631.15;1696703;84;21615;-56
2021/03/13 08:56:43;;;;;;;31.50;23.07;;;;;;;12.33;50.91;100636.67;1704336;83;21580;-55
2021/03/13 08:59:20;;;;;;;30.68;22.22;;;;;;;12.38;50.69;100631.31;1698072;83;21124;-62
2021/03/13 09:02:08;;;;;;;24.87;20.90;;;;;;;12.37;50.93;100636.59;1696829;84;21330;-57
2021/03/13 09:04:36;;;;;;;29.50;21.12;;;;;;;12.37;50.76;100640.55;1704761;83;21183;-57
2021/03/13 09:07:06;;;;;;;26.12;19.27;;;;;;;12.47;51.15;100648.33;1700413;83;21555;-56
2021/03/13 09:09:38;;;;;;;28.60;20.75;;;;;;;12.57;50.88;100650.36;1696746;84;21484;-57
2021/03/13 09:12:17;;;;;;;27.13;20.37;;;;;;;12.61;51.02;100644.14;1696714;84;21125;-56
2021/03/13 09:14:57;;;;;;;26.82;20.70;;;;;;;12.60;50.51;100646.36;1720370;83;21561;-56
2021/03/13 09:17:27;;;;;;;28.10;21.85;;;;;;;12.66;50.49;100649.33;1708258;83;21615;-61
2021/03/13 09:19:57;;;;;;;25.88;21.17;;;;;;;12.71;50.28;100648.81;1696936;84;21345;-61
2021/03/13 09:22:26;;;;;;;27.93;21.10;;;;;;;12.61;49.74;100653.81;1669937;83;21138;-61
2021/03/13 09:25:06;;;;;;;26.45;20.50;;;;;;;12.54;49.67;100650.41;1716631;83;21167;-59
2021/03/13 09:27:37;;;;;;;26.07;19.62;;;;;;;12.40;50.57;100649.31;1692003;85;21656;-61
2021/03/13 09:30:19;;;;;;;27.42;21.25;;;;;;;12.44;49.93;100641.78;1756682;81;21144;-55
2021/03/13 09:32:49;;;;;;;25.10;19.87;;;;;;;12.48;50.28;100642.59;1740934;81;21598;-62
2021/03/13 09:35:19;;;;;;;27.43;21.20;;;;;;;12.51;50.56;100644.33;1754600;81;21555;-62
2021/03/13 09:37:47;;;;;;;27.43;20.73;;;;;;;12.54;50.56;100641.64;1756560;82;21159;-55
2021/03/13 09:40:23;;;;;;;26.60;19.95;;;;;;;12.53;50.26;100636.78;1756432;82;22214;-55
2021/03/13 09:42:51;;;;;;;24.75;19.40;;;;;;;12.48;49.40;100636.87;1751619;82;21589;-56
2021/03/13 09:45:21;;;;;;;26.35;19.30;;;;;;;12.35;48.53;100630.03;1733818;81;21301;-62
2021/03/13 09:47:59;;;;;;;27.27;19.95;;;;;;;12.31;48.73;100640.21;1726378;83;21166;-61
2021/03/13 09:50:33;;;;;;;26.30;19.57;;;;;;;12.38;49.27;100629.98;1732130;82;21579;-55
2021/03/13 09:53:03;;;;;;;25.08;19.17;;;;;;;12.35;49.31;100636.64;1750762;81;21159;-56
2021/03/13 09:55:32;;;;;;;27.70;20.05;;;;;;;12.43;49.06;100629.47;1754560;81;21146;-62
2021/03/13 09:58:02;;;;;;;26.57;20.20;;;;;;;12.53;49.00;100632.83;1756362;81;21515;-55
2021/03/13 10:00:32;;;;;;;27.67;19.20;;;;;;;12.59;48.52;100630.09;1739988;81;21618;-55
2021/03/13 10:03:01;;;;;;;24.95;19.25;;;;;;;12.58;47.87;100630.13;1755502;82;21554;-62
2021/03/13 10:05:31;;;;;;;24.50;18.57;;;;;;;12.66;48.00;100629.52;1756123;81;21735;-62
2021/03/13 10:08:06;;;;;;;25.70;19.48;;;;;;;12.73;47.93;100630.31;1755716;82;21572;-55
2021/03/13 10:10:36;;;;;;;28.47;20.65;;;;;;;12.82;47.94;100635.41;1742544;81;21123;-55
2021/03/13 10:13:06;;;;;;;23.42;18.20;;;;;;;12.91;47.96;100631.76;1755111;82;21162;-55
2021/03/13 10:15:36;;;;;;;21.87;17.23;;;;;;;12.98;47.77;100635.15;1756151;81;21610;-60
2021/03/13 10:18:14;;;;;;;24.40;18.12;;;;;;;13.04;47.00;100629.76;1745787;81;21176;-55
2021/03/13 10:20:50;;;;;;;23.10;17.82;;;;;;;13.05;46.47;100632.83;1739594;82;21163;-56
2021/03/13 10:23:24;;;;;;;22.87;17.32;;;;;;;12.98;46.13;100629.44;1748341;81;21304;-55
2021/03/13 10:26:09;;;;;;;23.90;18.45;;;;;;;12.87;45.98;100634.88;1747421;82;21163;-56
2021/03/13 10:28:39;;;;;;;23.80;18.60;;;;;;;12.84;46.27;100627.48;1744683;81;21571;-60
2021/03/13 10:31:22;;;;;;;22.17;17.65;;;;;;;12.83;46.55;100629.23;1747307;82;21135;-55
2021/03/13 10:33:51;;;;;;;25.95;19.67;;;;;;;12.78;46.43;100642.53;1748321;81;21540;-55
2021/03/13 10:36:42;;;;;;;27.82;21.45;;;;;;;12.73;46.80;100635.59;1725556;82;21144;-55
2021/03/13 10:39:11;;;;;;;23.70;18.52;;;;;;;12.74;46.99;100638.66;1731886;82;21535;-61
2021/03/13 10:41:50;;;;;;;23.22;18.40;;;;;;;12.58;46.17;100640.23;1748238;82;21119;-61
2021/03/13 10:44:18;;;;;;;26.60;21.30;;;;;;;12.50;46.49;100652.67;1738753;82;21143;-55
2021/03/13 10:46:46;;;;;;;27.10;21.30;;;;;;;12.38;46.94;100656.39;1722085;82;21648;-62
2021/03/13 10:49:15;;;;;;;27.98;21.95;;;;;;;12.30;47.16;100655.62;1681713;85;21590;-55
2021/03/13 10:51:46;;;;;;;28.38;22.00;;;;;;;12.17;47.70;100667.67;1737877;82;21152;-55
2021/03/13 10:54:23;;;;;;;28.73;20.35;;;;;;;12.08;48.06;100663.87;1739214;81;21614;-55
2021/03/13 10:56:52;;;;;;;27.55;20.62;;;;;;;12.01;48.37;100670.97;1733901;82;21147;-56
2021/03/13 10:59:33;;;;;;;27.98;20.88;;;;;;;11.93;48.53;100670.17;1747210;82;21147;-55
2021/03/13 11:02:01;;;;;;;34.58;25.27;;;;;;;11.82;48.87;100668.14;1748445;81;21469;-62
2021/03/13 11:04:30;;;;;;;37.63;26.80;;;;;;;11.81;49.06;100679.58;1726145;81;21543;-55
2021/03/13 11:06:59;;;;;;;33.15;23.90;;;;;;;11.77;49.29;100676.09;1718955;82;21133;-62
2021/03/13 11:09:29;;;;;;;29.92;22.70;;;;;;;11.67;49.34;100677.12;1741612;82;21258;-61
2021/03/13 11:11:57;;;;;;;27.85;21.10;;;;;;;11.61;49.40;100678.05;1747763;82;21598;-55
2021/03/13 11:14:26;;;;;;;27.48;20.57;;;;;;;11.56;49.52;100680.75;1747779;82;21139;-55
2021/03/13 11:16:54;;;;;;;26.75;19.85;;;;;;;11.53;49.71;100680.78;1737429;82;21200;-60
2021/03/13 11:19:25;;;;;;;25.43;19.35;;;;;;;11.49;50.05;100679.50;1718452;83;21618;-61
2021/03/13 11:21:54;;;;;;;24.67;19.05;;;;;;;11.39;50.15;100679.62;1726095;82;21305;-61
2021/03/13 11:24:26;;;;;;;28.85;21.02;;;;;;;11.35;50.37;100679.23;1719383;82;21135;-61
2021/03/13 11:26:54;;;;;;;35.13;24.90;;;;;;;11.33;50.58;100673.52;1677740;83;21575;-61
2021/03/13 11:29:22;;;;;;;29.50;21.48;;;;;;;11.29;50.87;100672.70;1718532;83;21562;-56
2021/03/13 11:31:50;;;;;;;30.10;21.42;;;;;;;11.25;51.22;100670.98;1726580;82;21670;-55
2021/03/13 11:34:19;;;;;;;29.45;21.57;;;;;;;11.23;51.56;100672.33;1718547;83;21171;-55
2021/03/13 11:36:47;;;;;;;34.70;23.47;;;;;;;11.21;52.11;100668.84;1737648;82;21146;-61
2021/03/13 11:39:15;;;;;;;34.18;24.43;;;;;;;11.13;52.50;100663.63;1746983;82;21154;-55
2021/03/13 11:41:45;;;;;;;33.33;22.75;;;;;;;11.15;52.54;100664.94;1719491;82;21163;-55